createdAt,value
2018-09-19T16:09:33.285Z,1011.91
2018-09-19T16:10:33.157Z,1011.87
2018-09-19T16:11:33.114Z,1011.90
2018-09-19T16:12:33.069Z,1011.91
2018-09-19T16:13:33.024Z,1011.88
2018-09-19T16:14:32.979Z,1011.95
2018-09-19T16:15:32.936Z,1011.90
2018-09-19T16:16:32.891Z,1011.96
2018-09-19T16:17:32.857Z,1011.95
2018-09-19T16:18:32.801Z,1011.96
2018-09-19T16:19:32.767Z,1011.96
2018-09-19T16:20:32.722Z,1012.09
2018-09-19T16:21:32.678Z,1011.96
2018-09-19T16:22:32.633Z,1011.96
2018-09-19T16:23:32.588Z,1011.97
2018-09-19T16:24:32.549Z,1011.96
2018-09-19T16:25:32.508Z,1011.95
2018-09-19T16:26:32.462Z,1011.99
2018-09-19T16:27:32.418Z,1011.94
2018-09-19T16:28:32.379Z,1011.94
2018-09-19T16:29:32.333Z,1011.96
2018-09-19T16:30:32.294Z,1011.99
2018-09-19T16:31:32.252Z,1011.97
2018-09-19T16:32:32.204Z,1011.99
2018-09-19T16:33:32.162Z,1011.99
2018-09-19T16:34:32.116Z,1012.00
2018-09-19T16:35:32.076Z,1012.03
2018-09-19T16:36:32.034Z,1012.01
2018-09-19T16:37:31.992Z,1011.98
2018-09-19T16:38:31.950Z,1012.08
2018-09-19T16:39:31.895Z,1012.06
2018-09-19T16:40:31.864Z,1012.09
2018-09-19T16:41:31.818Z,1012.08
2018-09-19T16:42:31.777Z,1012.06
2018-09-19T16:43:31.729Z,1012.14
2018-09-19T16:44:31.693Z,1012.12
2018-09-19T16:45:31.657Z,1012.16
2018-09-19T16:46:31.617Z,1012.22
2018-09-19T16:47:31.562Z,1012.15
2018-09-19T16:48:31.530Z,1012.15
2018-09-19T16:49:31.476Z,1012.18
2018-09-19T16:50:31.434Z,1012.21
2018-09-19T16:51:31.383Z,1012.20
2018-09-19T16:52:31.346Z,1012.18
2018-09-19T16:53:31.305Z,1012.23
2018-09-19T16:54:31.266Z,1012.20
2018-09-19T16:55:31.221Z,1012.22
2018-09-19T16:56:31.177Z,1012.25
2018-09-19T16:57:31.136Z,1012.23
2018-09-19T16:58:31.116Z,1012.25
2018-09-19T16:59:31.048Z,1012.27
2018-09-19T17:00:31.012Z,1012.24
2018-09-19T17:01:30.963Z,1012.29
2018-09-19T17:02:30.915Z,1012.28
2018-09-19T17:03:30.881Z,1012.27
2018-09-19T17:04:30.836Z,1012.36
2018-09-19T17:05:30.791Z,1012.30
2018-09-19T17:06:30.749Z,1012.30
2018-09-19T17:07:30.707Z,1012.31
2018-09-19T17:08:30.660Z,1012.31
2018-09-19T17:09:30.628Z,1012.34
2018-09-19T17:10:30.587Z,1012.34
2018-09-19T17:11:30.533Z,1012.32
2018-09-19T17:12:30.494Z,1012.33
2018-09-19T17:13:30.463Z,1012.36
2018-09-19T17:14:30.405Z,1012.32
2018-09-19T17:15:30.428Z,1012.34
2018-09-19T17:16:30.329Z,1012.39
2018-09-19T17:17:30.284Z,1012.36
2018-09-19T17:18:30.232Z,1012.39
2018-09-19T17:19:30.192Z,1012.41
2018-09-19T17:20:30.145Z,1012.43
2018-09-19T17:21:30.110Z,1012.44
2018-09-19T17:22:30.062Z,1012.44
2018-09-19T17:23:30.022Z,1012.50
2018-09-19T17:24:29.980Z,1012.47
2018-09-19T17:25:29.939Z,1012.51
2018-09-19T17:26:29.890Z,1012.47
2018-09-19T17:27:29.852Z,1012.52
2018-09-19T17:28:29.811Z,1012.58
2018-09-19T17:29:29.775Z,1012.57
2018-09-19T17:30:29.733Z,1012.58
2018-09-19T17:31:29.685Z,1012.59
2018-09-19T17:32:29.672Z,1012.63
2018-09-19T17:33:29.598Z,1012.62
2018-09-19T17:34:29.553Z,1012.66
2018-09-19T17:35:29.512Z,1012.68
2018-09-19T17:36:29.463Z,1012.72
2018-09-19T17:37:29.430Z,1012.68
2018-09-19T17:38:29.383Z,1012.72
2018-09-19T17:39:29.341Z,1012.69
2018-09-19T17:40:29.293Z,1012.71
2018-09-19T17:41:29.263Z,1012.76
2018-09-19T17:42:29.213Z,1012.74
2018-09-19T17:43:29.175Z,1012.80
2018-09-19T17:44:29.123Z,1012.80
2018-09-19T17:45:29.092Z,1012.78
2018-09-19T17:46:29.037Z,1012.85
2018-09-19T17:47:29.001Z,1012.81
2018-09-19T17:48:28.958Z,1012.85
2018-09-19T17:49:28.914Z,1012.87
2018-09-19T17:50:28.873Z,1012.85
2018-09-19T17:51:28.828Z,1012.89
2018-09-19T17:52:28.793Z,1012.90
2018-09-19T17:53:28.745Z,1012.91
2018-09-19T17:54:28.701Z,1012.92
2018-09-19T17:55:28.656Z,1012.94
2018-09-19T17:56:28.620Z,1012.93
2018-09-19T17:57:28.592Z,1012.94
2018-09-19T17:58:28.534Z,1012.95
2018-09-19T17:59:28.477Z,1012.97
2018-09-19T18:00:28.445Z,1012.97
2018-09-19T18:01:28.404Z,1012.94
2018-09-19T18:02:28.359Z,1012.96
2018-09-19T18:03:28.314Z,1012.95
2018-09-19T18:04:28.282Z,1012.96
2018-09-19T18:05:28.234Z,1012.98
2018-09-19T18:06:28.189Z,1013.00
2018-09-19T18:07:28.143Z,1013.01
2018-09-19T18:08:28.108Z,1013.03
2018-09-19T18:09:28.063Z,1013.01
2018-09-19T18:10:28.021Z,1013.07
2018-09-19T18:11:27.976Z,1013.08
2018-09-19T18:12:27.935Z,1013.11
2018-09-19T18:13:27.887Z,1013.06
2018-09-19T18:14:27.846Z,1013.11
2018-09-19T18:15:27.817Z,1013.14
2018-09-19T18:16:27.784Z,1013.09
2018-09-19T18:17:27.720Z,1013.14
2018-09-19T18:18:27.682Z,1013.11
2018-09-19T18:19:27.633Z,1013.16
2018-09-19T18:20:27.601Z,1013.18
2018-09-19T18:21:27.552Z,1013.15
2018-09-19T18:22:27.506Z,1013.13
2018-09-19T18:23:27.469Z,1013.19
2018-09-19T18:24:27.424Z,1013.19
2018-09-19T18:25:27.385Z,1013.24
2018-09-19T18:26:27.336Z,1013.20
2018-09-19T18:27:27.298Z,1013.18
2018-09-19T18:28:27.252Z,1013.22
2018-09-19T18:29:27.225Z,1013.23
2018-09-19T18:30:27.169Z,1013.25
2018-09-19T18:31:27.124Z,1013.29
2018-09-19T18:32:27.079Z,1013.31
2018-09-19T18:33:27.041Z,1013.35
2018-09-19T18:34:27.002Z,1013.33
2018-09-19T18:35:26.957Z,1013.33
2018-09-19T18:36:26.921Z,1013.40
2018-09-19T18:37:26.869Z,1013.41
2018-09-19T18:38:26.858Z,1013.40
2018-09-19T18:39:26.782Z,1013.43
2018-09-19T18:40:26.774Z,1013.39
2018-09-19T18:41:26.705Z,1013.41
2018-09-19T18:42:26.648Z,1013.42
2018-09-19T18:44:26.577Z,1013.45
2018-09-19T18:45:26.523Z,1013.46
2018-09-19T18:46:26.486Z,1013.49
2018-09-19T18:47:26.454Z,1013.50
2018-09-19T18:48:26.403Z,1013.49
2018-09-19T18:49:26.381Z,1013.53
2018-09-19T18:50:26.310Z,1013.54
2018-09-19T18:51:26.275Z,1013.57
2018-09-19T18:52:26.225Z,1013.59
2018-09-19T18:53:26.190Z,1013.61
2018-09-19T18:54:26.138Z,1013.65
2018-09-19T18:55:26.103Z,1013.66
2018-09-19T18:56:26.057Z,1013.66
2018-09-19T18:57:26.015Z,1013.69
2018-09-19T18:58:25.977Z,1013.72
2018-09-19T18:59:25.939Z,1013.72
2018-09-19T19:00:25.892Z,1013.70
2018-09-19T19:01:25.851Z,1013.72
2018-09-19T19:02:25.799Z,1013.75
2018-09-19T19:03:25.754Z,1013.77
2018-09-19T19:04:25.721Z,1013.81
2018-09-19T19:05:25.672Z,1013.82
2018-09-19T19:06:25.643Z,1013.82
2018-09-19T19:07:25.582Z,1013.82
2018-09-19T19:08:25.552Z,1013.82
2018-09-19T19:09:25.510Z,1013.83
2018-09-19T19:10:25.455Z,1013.90
2018-09-19T19:11:25.417Z,1013.89
2018-09-19T19:12:25.368Z,1013.89
2018-09-19T19:13:25.339Z,1013.87
2018-09-19T19:14:25.294Z,1013.92
2018-09-19T19:15:25.253Z,1013.90
2018-09-19T19:16:25.205Z,1013.90
2018-09-19T19:17:25.176Z,1013.92
2018-09-19T19:18:25.126Z,1013.93
2018-09-19T19:19:25.088Z,1013.92
2018-09-19T19:20:25.046Z,1013.95
2018-09-19T19:21:24.995Z,1013.95
2018-09-19T19:22:24.962Z,1013.98
2018-09-19T19:23:24.906Z,1014.00
2018-09-19T19:24:24.866Z,1013.97
2018-09-19T19:25:24.848Z,1014.02
2018-09-19T19:26:24.780Z,1014.03
2018-09-19T19:27:24.738Z,1014.04
2018-09-19T19:28:24.696Z,1014.08
2018-09-19T19:29:24.645Z,1014.06
2018-09-19T19:30:24.668Z,1014.10
2018-09-19T19:31:24.568Z,1014.09
2018-09-19T19:32:24.531Z,1014.08
2018-09-19T19:33:24.494Z,1014.06
2018-09-19T19:34:24.434Z,1014.06
2018-09-19T19:35:24.392Z,1014.08
2018-09-19T19:36:24.361Z,1014.09
2018-09-19T19:37:24.312Z,1014.06
2018-09-19T19:38:24.304Z,1014.14
2018-09-19T19:39:24.226Z,1014.12
2018-09-19T19:40:24.177Z,1014.15
2018-09-19T19:41:24.140Z,1014.18
2018-09-19T19:42:24.102Z,1014.22
2018-09-19T19:43:24.063Z,1014.21
2018-09-19T19:44:24.013Z,1014.23
2018-09-19T19:45:23.977Z,1014.26
2018-09-19T19:46:23.929Z,1014.26
2018-09-19T19:47:23.889Z,1014.27
2018-09-19T19:48:23.844Z,1014.28
2018-09-19T19:49:23.793Z,1014.25
2018-09-19T19:50:23.755Z,1014.27
2018-09-19T19:51:23.725Z,1014.26
2018-09-19T19:52:23.675Z,1014.27
2018-09-19T19:53:23.691Z,1014.28
2018-09-19T19:54:23.589Z,1014.28
2018-09-19T19:55:23.549Z,1014.28
2018-09-19T19:56:23.532Z,1014.31
2018-09-19T19:57:23.462Z,1014.29
2018-09-19T19:58:23.419Z,1014.29
2018-09-19T19:59:23.416Z,1014.32
2018-09-19T20:00:23.337Z,1014.34
2018-09-19T20:01:23.279Z,1014.34
2018-09-19T20:02:23.238Z,1014.36
2018-09-19T20:03:23.204Z,1014.35
2018-09-19T20:04:23.165Z,1014.36
2018-09-19T20:05:23.130Z,1014.34
2018-09-19T20:06:23.082Z,1014.33
2018-09-19T20:07:23.034Z,1014.39
2018-09-19T20:08:22.992Z,1014.41
2018-09-19T20:09:22.945Z,1014.43
2018-09-19T20:10:22.905Z,1014.40
2018-09-19T20:11:22.861Z,1014.45
2018-09-19T20:12:22.826Z,1014.41
2018-09-19T20:13:22.777Z,1014.48
2018-09-19T20:14:22.730Z,1014.46
2018-09-19T20:15:22.691Z,1014.45
2018-09-19T20:16:22.653Z,1014.46
2018-09-19T20:17:22.599Z,1014.45
2018-09-19T20:18:22.591Z,1014.46
2018-09-19T20:19:22.521Z,1014.46
2018-09-19T20:20:22.483Z,1014.49
2018-09-19T20:21:22.454Z,1014.45
2018-09-19T20:22:22.394Z,1014.45
2018-09-19T20:23:22.416Z,1014.43
2018-09-19T20:24:22.309Z,1014.45
2018-09-19T20:25:22.267Z,1014.47
2018-09-19T20:26:22.223Z,1014.47
2018-09-19T20:27:22.187Z,1014.49
2018-09-19T20:28:22.139Z,1014.51
2018-09-19T20:29:22.091Z,1014.50
2018-09-19T20:30:22.079Z,1014.54
2018-09-19T20:31:22.012Z,1014.52
2018-09-19T20:32:21.966Z,1014.54
2018-09-19T20:33:21.924Z,1014.56
2018-09-19T20:34:21.903Z,1014.54
2018-09-19T20:35:21.839Z,1014.55
2018-09-19T20:37:21.752Z,1014.59
2018-09-19T20:38:21.702Z,1014.59
2018-09-19T20:39:21.660Z,1014.55
2018-09-19T20:40:21.616Z,1014.56
2018-09-19T20:41:21.593Z,1014.59
2018-09-19T20:42:21.539Z,1014.58
2018-09-19T20:43:21.498Z,1014.58
2018-09-19T20:44:21.458Z,1014.59
2018-09-19T20:45:21.418Z,1014.61
2018-09-19T20:46:21.370Z,1014.60
2018-09-19T20:47:21.331Z,1014.64
2018-09-19T20:48:21.291Z,1014.60
2018-09-19T20:49:21.242Z,1014.61
2018-09-19T20:50:21.201Z,1014.65
2018-09-19T20:51:21.157Z,1014.66
2018-09-19T20:52:21.115Z,1014.66
2018-09-19T20:53:21.067Z,1014.69
2018-09-19T20:54:21.029Z,1014.69
2018-09-19T20:55:20.990Z,1014.71
2018-09-19T20:56:21.003Z,1014.72
2018-09-19T20:57:20.902Z,1014.80
2018-09-19T20:58:20.866Z,1014.78
2018-09-19T20:59:20.818Z,1014.80
2018-09-19T21:00:20.777Z,1014.79
2018-09-19T21:01:20.733Z,1014.80
2018-09-19T21:02:20.688Z,1014.78
2018-09-19T21:03:20.654Z,1014.80
2018-09-19T21:04:20.634Z,1014.80
2018-09-19T21:05:20.554Z,1014.82
2018-09-19T21:06:20.523Z,1014.88
2018-09-19T21:07:20.489Z,1014.82
2018-09-19T21:08:20.437Z,1014.82
2018-09-19T21:09:20.468Z,1014.86
2018-09-19T21:10:20.352Z,1014.88
2018-09-19T21:11:20.304Z,1014.87
2018-09-19T21:12:20.266Z,1014.89
2018-09-19T21:13:20.226Z,1014.91
2018-09-19T21:14:20.177Z,1014.90
2018-09-19T21:15:20.134Z,1014.94
2018-09-19T21:16:20.093Z,1014.90
2018-09-19T21:17:20.052Z,1014.93
2018-09-19T21:18:20.017Z,1014.96
2018-09-19T21:19:19.965Z,1014.91
2018-09-19T21:20:19.913Z,1014.95
2018-09-19T21:21:19.880Z,1014.96
2018-09-19T21:22:20.036Z,1014.96
2018-09-19T21:23:19.792Z,1014.92
2018-09-19T21:24:19.757Z,1014.93
2018-09-19T21:25:19.720Z,1014.94
2018-09-19T21:26:19.668Z,1014.91
2018-09-19T21:27:19.634Z,1014.93
2018-09-19T21:28:19.625Z,1014.93
2018-09-19T21:29:19.546Z,1014.94
2018-09-19T21:30:19.504Z,1014.93
2018-09-19T21:31:19.455Z,1014.95
2018-09-19T21:32:19.514Z,1014.94
2018-09-19T21:33:19.374Z,1014.93
2018-09-19T21:34:19.353Z,1014.95
2018-09-19T21:35:19.392Z,1014.96
2018-09-19T21:36:19.229Z,1014.95
2018-09-19T21:37:19.187Z,1014.94
2018-09-19T21:38:19.149Z,1014.97
2018-09-19T21:39:19.122Z,1015.00
2018-09-19T21:40:19.073Z,1014.97
2018-09-19T21:41:19.031Z,1015.00
2018-09-19T21:42:18.987Z,1014.99
2018-09-19T21:43:18.944Z,1014.99
2018-09-19T21:44:18.900Z,1015.03
2018-09-19T21:45:18.897Z,1015.02
2018-09-19T21:46:18.814Z,1015.03
2018-09-19T21:47:18.774Z,1015.02
2018-09-19T21:48:18.727Z,1015.02
2018-09-19T21:49:18.683Z,1015.01
2018-09-19T21:50:18.641Z,1015.02
2018-09-19T21:51:18.599Z,1015.05
2018-09-19T21:52:18.559Z,1015.05
2018-09-19T21:53:18.514Z,1015.08
2018-09-19T21:54:18.476Z,1015.07
2018-09-19T21:55:18.428Z,1015.05
2018-09-19T21:56:18.425Z,1015.03
2018-09-19T21:57:18.352Z,1015.04
2018-09-19T21:58:18.304Z,1015.00
2018-09-19T21:59:18.266Z,1015.02
2018-09-19T22:00:18.215Z,1015.02
2018-09-19T22:01:18.176Z,1015.04
2018-09-19T22:02:18.137Z,1015.03
2018-09-19T22:03:18.089Z,1015.02
2018-09-19T22:04:18.050Z,1015.00
2018-09-19T22:05:18.008Z,1014.99
2018-09-19T22:06:17.962Z,1014.98
2018-09-19T22:07:17.913Z,1014.97
2018-09-19T22:08:17.876Z,1014.99
2018-09-19T22:09:17.833Z,1014.98
2018-09-19T22:10:17.793Z,1014.93
2018-09-19T22:11:17.746Z,1014.97
2018-09-19T22:12:17.705Z,1014.96
2018-09-19T22:13:17.660Z,1014.99
2018-09-19T22:14:17.621Z,1014.99
2018-09-19T22:15:17.582Z,1015.01
2018-09-19T22:16:17.535Z,1014.99
2018-09-19T22:17:17.493Z,1015.01
2018-09-19T22:18:17.452Z,1015.02
2018-09-19T22:19:17.407Z,1015.02
2018-09-19T22:20:17.365Z,1015.01
2018-09-19T22:21:17.323Z,1014.98
2018-09-19T22:22:17.279Z,1015.01
2018-09-19T22:23:17.234Z,1014.98
2018-09-19T22:24:17.195Z,1014.98
2018-09-19T22:25:17.163Z,1014.98
2018-09-19T22:26:17.108Z,1014.97
2018-09-19T22:27:17.075Z,1014.97
2018-09-19T22:28:17.026Z,1014.96
2018-09-19T22:29:16.987Z,1014.97
2018-09-19T22:30:16.937Z,1014.94
2018-09-19T22:31:16.902Z,1014.94
2018-09-19T22:32:16.855Z,1014.90
2018-09-19T22:33:16.809Z,1014.95
2018-09-19T22:34:16.766Z,1014.97
2018-09-19T22:35:16.727Z,1014.97
2018-09-19T22:36:16.682Z,1014.96
2018-09-19T22:37:16.652Z,1015.00
2018-09-19T22:38:16.596Z,1014.97
2018-09-19T22:39:16.555Z,1014.99
2018-09-19T22:40:16.504Z,1014.97
2018-09-19T22:41:16.471Z,1014.98
2018-09-19T22:42:16.426Z,1014.93
2018-09-19T22:43:16.384Z,1014.92
2018-09-19T22:44:16.343Z,1014.94
2018-09-19T22:45:16.302Z,1014.91
2018-09-19T22:46:16.261Z,1014.94
2018-09-19T22:47:16.216Z,1014.92
2018-09-19T22:48:16.172Z,1014.92
2018-09-19T22:49:16.130Z,1014.92
2018-09-19T22:50:16.085Z,1014.93
2018-09-19T22:51:16.044Z,1014.91
2018-09-19T22:52:15.999Z,1014.90
2018-09-19T22:53:15.958Z,1014.86
2018-09-19T22:54:15.920Z,1014.86
2018-09-19T22:55:15.875Z,1014.86
2018-09-19T22:56:15.834Z,1014.80
2018-09-19T22:57:15.792Z,1014.78
2018-09-19T22:58:15.749Z,1014.79
2018-09-19T22:59:15.702Z,1014.75
2018-09-19T23:00:15.661Z,1014.81
2018-09-19T23:01:15.618Z,1014.76
2018-09-19T23:02:15.580Z,1014.77
2018-09-19T23:03:15.533Z,1014.79
2018-09-19T23:04:15.497Z,1014.78
2018-09-19T23:05:15.456Z,1014.81
2018-09-19T23:06:15.412Z,1014.78
2018-09-19T23:07:15.373Z,1014.77
2018-09-19T23:08:15.320Z,1014.78
2018-09-19T23:09:15.276Z,1014.80
2018-09-19T23:10:15.232Z,1014.82
2018-09-19T23:11:15.191Z,1014.82
2018-09-19T23:12:15.151Z,1014.78
2018-09-19T23:13:15.109Z,1014.80
2018-09-19T23:14:15.071Z,1014.78
2018-09-19T23:15:15.016Z,1014.79
2018-09-19T23:16:14.994Z,1014.77
2018-09-19T23:17:14.936Z,1014.73
2018-09-19T23:18:14.904Z,1014.75
2018-09-19T23:19:14.850Z,1014.74
2018-09-19T23:20:14.814Z,1014.73
2018-09-19T23:21:14.766Z,1014.78
2018-09-19T23:22:14.721Z,1014.79
2018-09-19T23:23:14.681Z,1014.76
2018-09-19T23:24:14.635Z,1014.78
2018-09-19T23:25:14.591Z,1014.75
2018-09-19T23:26:14.553Z,1014.77
2018-09-19T23:27:14.508Z,1014.71
2018-09-19T23:28:14.463Z,1014.70
2018-09-19T23:29:14.422Z,1014.71
2018-09-19T23:30:14.381Z,1014.71
2018-09-19T23:31:14.355Z,1014.68
2018-09-19T23:32:14.307Z,1014.70
2018-09-19T23:33:14.266Z,1014.66
2018-09-19T23:34:14.212Z,1014.67
2018-09-19T23:35:14.177Z,1014.67
2018-09-19T23:36:14.139Z,1014.65
2018-09-19T23:37:14.088Z,1014.61
2018-09-19T23:38:14.043Z,1014.65
2018-09-19T23:39:14.017Z,1014.60
2018-09-19T23:40:13.956Z,1014.65
2018-09-19T23:41:13.915Z,1014.67
2018-09-19T23:42:13.880Z,1014.67
2018-09-19T23:43:13.831Z,1014.63
2018-09-19T23:44:13.793Z,1014.62
2018-09-19T23:45:13.744Z,1014.62
2018-09-19T23:46:13.703Z,1014.59
2018-09-19T23:47:13.660Z,1014.62
2018-09-19T23:48:13.616Z,1014.58
2018-09-19T23:49:13.575Z,1014.55
2018-09-19T23:50:13.528Z,1014.58
2018-09-19T23:51:13.489Z,1014.55
2018-09-19T23:52:13.445Z,1014.55
2018-09-19T23:53:13.403Z,1014.53
2018-09-19T23:54:13.360Z,1014.53
2018-09-19T23:55:13.318Z,1014.52
2018-09-19T23:56:13.289Z,1014.52
2018-09-19T23:57:13.235Z,1014.47
2018-09-19T23:58:13.191Z,1014.49
2018-09-19T23:59:13.148Z,1014.48
